This is the latest recevied weather packets stored in our database for station/object 9W2CEW-1. If no packets are shown the sender has not sent any weather packets the latest 10 day(s).
| Time | Temp. | Humidity | Pressure | Rain* | Wind** | Luminosity | Snow |
|---|---|---|---|---|---|---|---|
| 1787764108 | 36.11° C | 45% | 1007 hPa | - | - | - | - |
| 1787763208 | 33.89° C | 51% | 1007.3 hPa | - | - | - | - |
| 1787762308 | 34.44° C | 49% | 1007.3 hPa | - | - | - | - |
| 1787761947 | 36.67° C | 40% | 1003.7 hPa | - | - | - | - |
| 1787761408 | 35° C | 48% | 1007.5 hPa | - | - | - | - |
| 1787760507 | 33.89° C | 50% | 1007.6 hPa | - | - | - | - |
| 1787760107 | 35.56° C | 44% | 1004 hPa | - | - | - | - |
| 1787759607 | 35° C | 48% | 1007.9 hPa | - | - | - | - |
| 1787758889 | 36.11° C | 42% | 1003.8 hPa | - | - | - | - |
| 1787758707 | 35.56° C | 47% | 1007.8 hPa | - | - | - | - |
| 1787757807 | 35.56° C | 46% | 1007.8 hPa | - | - | - | - |
| 1787757659 | 36.67° C | 42% | 1003.6 hPa | - | - | - | - |
| 1787756907 | 35° C | 47% | 1007.9 hPa | - | - | - | - |
| 1787756189 | 36.11° C | 43% | 1003.5 hPa | - | - | - | - |
| 1787756007 | 35° C | 47% | 1007.7 hPa | - | - | - | - |
| 1787755107 | 35° C | 48% | 1007.4 hPa | - | - | - | - |
| 1787754359 | 36.67° C | 41% | 1003.5 hPa | - | - | - | - |
| 1787754207 | 35° C | 48% | 1007.2 hPa | - | - | - | - |
| 1787753310 | 35.56° C | 45% | 1006.9 hPa | - | - | - | - |
| 1787752410 | 36.11° C | 43% | 1006.7 hPa | - | - | - | - |
| 1787751510 | 36.11° C | 45% | 1006.3 hPa | - | - | - | - |
| 1787751028 | 36.11° C | 43% | 1003.9 hPa | - | - | - | - |
| 1787750610 | 36.11° C | 45% | 1005.7 hPa | - | - | - | - |
| 1787749868 | 38.33° C | 40% | 1003.8 hPa | - | - | - | - |
| 1787749710 | 36.67° C | 44% | 1005.2 hPa | - | - | - | - |
* Rain since midnight (hover to see other rain measurements)
** Current wind speed in m/s (hover to see current wind gust speed)